createdAt,value
2022-10-11T00:01:18.012Z,87.46
2022-10-11T00:03:44.571Z,87.37
2022-10-11T00:06:11.088Z,86.97
2022-10-11T00:08:37.681Z,87.30
2022-10-11T00:11:07.581Z,87.63
2022-10-11T00:13:34.833Z,87.18
2022-10-11T00:16:01.422Z,87.05
2022-10-11T00:18:28.207Z,86.93
2022-10-11T00:21:02.935Z,87.28
2022-10-11T00:23:29.376Z,87.67
2022-10-11T00:25:57.815Z,88.05
2022-10-11T00:28:24.500Z,88.10
2022-10-11T00:30:50.925Z,88.10
2022-10-11T00:33:18.137Z,88.02
2022-10-11T00:35:44.606Z,87.77
2022-10-11T00:38:11.315Z,87.86
2022-10-11T00:40:38.091Z,87.54
2022-10-11T00:43:04.959Z,87.18
2022-10-11T00:45:31.276Z,87.15
2022-10-11T00:48:04.499Z,86.58
2022-10-11T00:50:34.160Z,86.48
2022-10-11T00:53:11.340Z,86.21
2022-10-11T00:55:45.795Z,86.60
2022-10-11T00:58:13.376Z,86.18
2022-10-11T01:00:39.759Z,84.75
2022-10-11T01:03:06.582Z,85.22
2022-10-11T01:05:33.067Z,85.24
2022-10-11T01:08:00.323Z,85.32
2022-10-11T01:10:28.030Z,85.43
2022-10-11T01:13:42.566Z,84.71
2022-10-11T01:16:17.836Z,84.87
2022-10-11T01:18:54.616Z,85.25
2022-10-11T01:21:29.240Z,84.91
2022-10-11T01:24:25.593Z,85.01
2022-10-11T01:27:29.154Z,85.40
2022-10-11T01:29:58.444Z,85.43
2022-10-11T01:32:33.349Z,85.23
2022-10-11T01:35:12.590Z,85.19
2022-10-11T01:37:45.000Z,85.66
2022-10-11T01:40:32.473Z,85.44
2022-10-11T01:43:00.393Z,85.47
2022-10-11T01:45:27.255Z,85.73
2022-10-11T01:48:08.929Z,86.29
2022-10-11T01:50:40.149Z,85.58
2022-10-11T01:53:30.621Z,86.37
2022-10-11T01:56:06.301Z,86.62
2022-10-11T01:58:40.827Z,86.92
2022-10-11T02:01:26.058Z,86.80
2022-10-11T02:04:06.305Z,87.49
2022-10-11T02:06:41.338Z,87.58
2022-10-11T02:09:16.719Z,87.88
2022-10-11T02:11:43.253Z,87.26
2022-10-11T02:14:14.602Z,86.76
2022-10-11T02:16:50.048Z,86.05
2022-10-11T02:19:21.582Z,85.85
2022-10-11T02:21:54.585Z,85.42
2022-10-11T02:24:39.544Z,85.56
2022-10-11T02:27:07.377Z,85.52
2022-10-11T02:29:37.764Z,85.67
2022-10-11T02:32:05.786Z,86.10
2022-10-11T02:34:39.760Z,85.64
2022-10-11T02:37:17.005Z,85.81
2022-10-11T02:40:02.333Z,84.94
2022-10-11T02:42:37.682Z,84.79
2022-10-11T02:45:14.544Z,85.05
2022-10-11T02:47:42.542Z,86.47
2022-10-11T02:50:11.984Z,86.42
2022-10-11T02:52:38.662Z,85.59
2022-10-11T02:55:06.152Z,85.29
2022-10-11T02:57:32.573Z,85.17
2022-10-11T02:59:58.975Z,84.79
2022-10-11T03:02:25.381Z,84.84
2022-10-11T03:04:52.157Z,84.49
2022-10-11T03:07:18.566Z,85.75
2022-10-11T03:09:45.114Z,85.27
2022-10-11T03:12:11.477Z,84.53
2022-10-11T03:14:37.912Z,83.70
2022-10-11T03:17:30.866Z,82.92
2022-10-11T03:19:51.564Z,82.24
2022-10-11T03:22:18.000Z,82.21
2022-10-11T03:24:44.473Z,82.30
2022-10-11T03:27:11.133Z,82.64
2022-10-11T03:29:37.532Z,82.49
2022-10-11T03:32:04.175Z,82.52
2022-10-11T03:34:30.607Z,81.68
2022-10-11T03:36:57.174Z,81.14
2022-10-11T03:39:23.600Z,81.50
2022-10-11T03:41:50.102Z,81.74
2022-10-11T03:44:16.546Z,81.79
2022-10-11T03:46:42.981Z,81.05
2022-10-11T03:49:09.392Z,81.11
2022-10-11T03:51:36.460Z,80.75
2022-10-11T03:54:03.034Z,81.33
2022-10-11T03:56:29.464Z,81.41
2022-10-11T03:58:55.845Z,81.54
2022-10-11T04:01:22.277Z,82.06
2022-10-11T04:03:48.829Z,82.34
2022-10-11T04:06:15.268Z,82.79
2022-10-11T04:08:41.690Z,82.88
2022-10-11T04:11:08.151Z,83.82
2022-10-11T04:13:34.627Z,83.32
2022-10-11T04:16:01.186Z,83.40
2022-10-11T04:18:27.773Z,83.49
2022-10-11T04:20:54.236Z,83.13
2022-10-11T04:23:20.647Z,83.45
2022-10-11T04:25:48.376Z,82.41
2022-10-11T04:28:15.132Z,81.16
2022-10-11T04:30:42.094Z,81.22
2022-10-11T04:33:11.539Z,81.18
2022-10-11T04:35:37.928Z,80.79
2022-10-11T04:38:04.434Z,80.47
2022-10-11T04:40:30.856Z,80.01
2022-10-11T04:42:57.332Z,79.69
2022-10-11T04:45:23.878Z,79.48
2022-10-11T04:47:50.316Z,79.79
2022-10-11T04:50:16.841Z,79.50
2022-10-11T04:52:43.394Z,80.40
2022-10-11T04:55:10.954Z,80.70
2022-10-11T04:57:37.373Z,80.48
2022-10-11T05:00:05.505Z,80.70
2022-10-11T05:02:31.962Z,80.86
2022-10-11T05:04:58.659Z,81.20
2022-10-11T05:07:25.111Z,80.95
2022-10-11T05:09:51.529Z,81.46
2022-10-11T05:12:18.032Z,81.27
2022-10-11T05:14:44.456Z,81.85
2022-10-11T05:17:10.892Z,82.22
2022-10-11T05:19:37.378Z,82.42
2022-10-11T05:22:03.759Z,82.96
2022-10-11T05:24:30.301Z,82.43
2022-10-11T05:26:59.789Z,82.58
2022-10-11T05:29:29.542Z,82.07
2022-10-11T05:31:56.036Z,81.71
2022-10-11T05:34:22.455Z,81.38
2022-10-11T05:36:48.966Z,80.66
2022-10-11T05:39:15.758Z,80.48
2022-10-11T05:41:42.175Z,80.44
2022-10-11T05:44:08.847Z,80.31
2022-10-11T05:46:35.382Z,80.36
2022-10-11T05:49:01.767Z,80.29
2022-10-11T05:51:28.151Z,80.09
2022-10-11T05:53:54.542Z,81.20
2022-10-11T05:56:24.133Z,80.84
2022-10-11T05:58:50.998Z,80.93
2022-10-11T06:01:19.786Z,80.24
2022-10-11T06:03:46.359Z,80.56
2022-10-11T06:06:12.755Z,80.80
2022-10-11T06:08:39.303Z,80.75
2022-10-11T06:11:15.332Z,82.03
2022-10-11T06:13:42.632Z,81.53
2022-10-11T06:16:09.608Z,81.44
2022-10-11T06:18:36.590Z,81.27
2022-10-11T06:21:03.809Z,81.29
2022-10-11T06:23:30.236Z,80.75
2022-10-11T06:25:57.522Z,81.15
2022-10-11T06:28:24.085Z,80.56
2022-10-11T06:30:50.655Z,80.66
2022-10-11T06:33:17.058Z,80.85
2022-10-11T06:35:43.609Z,81.01
2022-10-11T06:38:10.058Z,79.67
2022-10-11T06:40:36.570Z,79.51
2022-10-11T06:43:03.443Z,80.28
2022-10-11T06:45:29.843Z,79.55
2022-10-11T06:47:56.285Z,78.73
2022-10-11T06:50:47.081Z,78.30
2022-10-11T06:53:09.666Z,77.82
2022-10-11T06:55:36.086Z,77.16
2022-10-11T06:58:02.486Z,77.99
2022-10-11T07:00:28.863Z,78.83
2022-10-11T07:02:55.295Z,77.86
2022-10-11T07:05:21.663Z,77.55
2022-10-11T07:07:48.129Z,77.65
2022-10-11T07:10:14.537Z,77.31
2022-10-11T07:12:44.574Z,76.33
2022-10-11T07:15:11.549Z,75.78
2022-10-11T07:17:38.206Z,75.07
2022-10-11T07:20:06.698Z,75.43
2022-10-11T07:22:33.157Z,74.56
2022-10-11T07:24:59.572Z,73.84
2022-10-11T07:27:26.066Z,72.30
2022-10-11T07:29:52.445Z,73.05
2022-10-11T07:32:18.922Z,73.47
2022-10-11T07:34:45.341Z,72.27
2022-10-11T07:37:11.933Z,72.67
2022-10-11T07:39:38.497Z,71.83
2022-10-11T07:42:05.504Z,71.74
2022-10-11T07:44:31.983Z,70.50
2022-10-11T07:46:58.385Z,70.60
2022-10-11T07:49:24.747Z,71.15
2022-10-11T07:51:51.318Z,69.74
2022-10-11T07:54:17.683Z,70.25
2022-10-11T07:56:44.179Z,70.17
2022-10-11T07:59:10.769Z,69.40
2022-10-11T08:01:37.501Z,68.61
2022-10-11T08:04:04.127Z,68.10
2022-10-11T08:06:32.364Z,69.30
2022-10-11T08:09:00.504Z,68.46
2022-10-11T08:11:29.965Z,69.03
2022-10-11T08:13:57.811Z,69.09
2022-10-11T08:16:24.593Z,69.84
2022-10-11T08:18:51.436Z,69.34
2022-10-11T08:21:18.840Z,69.59
2022-10-11T08:23:45.324Z,69.15
2022-10-11T08:26:12.431Z,68.84
2022-10-11T08:28:38.967Z,70.49
2022-10-11T08:31:05.658Z,69.96
2022-10-11T08:33:32.307Z,69.48
2022-10-11T08:35:59.091Z,69.82
2022-10-11T08:38:25.514Z,70.55
2022-10-11T08:40:55.664Z,71.71
2022-10-11T08:43:40.720Z,71.14
2022-10-11T08:46:09.910Z,72.29
2022-10-11T08:48:38.339Z,71.61
2022-10-11T08:51:14.959Z,71.24
2022-10-11T08:53:55.738Z,70.38
2022-10-11T08:56:23.854Z,67.97
2022-10-11T08:59:11.912Z,68.21
2022-10-11T09:01:44.810Z,68.07
2022-10-11T09:04:17.056Z,67.51
2022-10-11T09:07:07.226Z,67.84
2022-10-11T09:09:48.866Z,67.94
2022-10-11T09:12:40.679Z,67.24
2022-10-11T09:15:26.268Z,67.29
2022-10-11T09:18:04.638Z,67.32
2022-10-11T09:21:08.322Z,68.78
2022-10-11T09:24:06.053Z,68.00
2022-10-11T09:27:00.949Z,68.11
2022-10-11T09:30:09.506Z,67.59
2022-10-11T09:32:39.534Z,66.29
2022-10-11T09:35:24.370Z,66.46
2022-10-11T09:37:59.672Z,65.93
2022-10-11T09:40:43.402Z,66.13
2022-10-11T09:43:09.866Z,67.36
2022-10-11T09:45:36.587Z,67.26
2022-10-11T09:48:06.646Z,66.98
2022-10-11T09:50:33.378Z,67.49
2022-10-11T09:53:04.747Z,66.01
2022-10-11T09:55:31.123Z,66.74
2022-10-11T09:57:57.682Z,66.16
2022-10-11T10:00:29.989Z,66.52
2022-10-11T10:02:59.277Z,64.98
2022-10-11T10:05:36.893Z,64.74
2022-10-11T10:08:09.325Z,64.45
2022-10-11T10:10:43.414Z,64.32
2022-10-11T10:13:40.896Z,63.58
2022-10-11T10:16:11.652Z,63.53
2022-10-11T10:18:51.691Z,63.22
2022-10-11T10:21:27.130Z,61.58
2022-10-11T10:23:56.133Z,61.38
2022-10-11T10:26:26.132Z,56.95
2022-10-11T10:29:16.780Z,56.46
2022-10-11T10:32:12.949Z,56.71
2022-10-11T10:34:38.765Z,54.99
2022-10-11T10:37:25.209Z,57.82
2022-10-11T10:40:07.678Z,57.31
2022-10-11T10:42:34.164Z,58.96
2022-10-11T10:45:01.135Z,58.81
2022-10-11T10:47:45.011Z,60.09
2022-10-11T10:50:18.917Z,57.22
2022-10-11T10:53:09.936Z,56.16
2022-10-11T10:55:36.535Z,56.72
2022-10-11T10:58:18.649Z,56.03
2022-10-11T11:00:50.701Z,57.75
2022-10-11T11:04:10.578Z,58.12
2022-10-11T11:06:50.845Z,57.34
2022-10-11T11:09:54.328Z,57.19
2022-10-11T11:12:53.449Z,56.57
2022-10-11T11:15:47.277Z,54.88
2022-10-11T11:18:33.422Z,55.17
2022-10-11T11:21:09.105Z,55.65
2022-10-11T11:24:08.508Z,55.06
2022-10-11T11:26:55.102Z,55.39
2022-10-11T11:29:35.792Z,55.86
2022-10-11T11:32:15.785Z,53.93
2022-10-11T11:34:50.830Z,54.17
2022-10-11T11:37:46.697Z,52.95
2022-10-11T11:40:29.678Z,52.75
2022-10-11T11:43:03.750Z,52.97
2022-10-11T11:45:46.301Z,53.86
2022-10-11T11:48:18.964Z,53.28
2022-10-11T11:50:53.301Z,52.99
2022-10-11T11:53:29.571Z,52.68
2022-10-11T11:56:03.378Z,52.94
2022-10-11T11:58:42.874Z,53.75
2022-10-11T12:01:35.416Z,55.22
2022-10-11T12:04:07.144Z,54.35
2022-10-11T12:06:43.735Z,55.91
2022-10-11T12:09:23.538Z,55.85
2022-10-11T12:12:04.790Z,56.10
2022-10-11T12:14:34.512Z,56.57
2022-10-11T12:17:19.050Z,55.99
2022-10-11T12:20:26.681Z,56.32
2022-10-11T12:23:00.618Z,55.95
2022-10-11T12:25:27.043Z,56.99
2022-10-11T12:27:56.039Z,57.66
2022-10-11T12:30:47.059Z,58.54
2022-10-11T12:33:16.473Z,58.28
2022-10-11T12:35:55.152Z,57.79
2022-10-11T12:38:31.093Z,56.86
2022-10-11T12:41:09.791Z,58.02
2022-10-11T12:44:15.006Z,58.28
2022-10-11T12:46:58.273Z,58.83
2022-10-11T12:49:33.551Z,58.10
2022-10-11T12:52:17.082Z,57.52
2022-10-11T12:55:06.629Z,56.79
2022-10-11T12:57:54.718Z,54.16
2022-10-11T13:00:31.112Z,56.61
2022-10-11T13:03:05.821Z,55.76
2022-10-11T13:05:44.930Z,53.82
2022-10-11T13:08:19.101Z,54.84
2022-10-11T13:10:47.752Z,52.86
2022-10-11T13:13:24.809Z,53.66
2022-10-11T13:15:57.219Z,56.31
2022-10-11T13:18:25.806Z,55.97
2022-10-11T13:20:52.533Z,55.55
2022-10-11T13:23:35.190Z,54.00
2022-10-11T13:26:02.316Z,50.31
2022-10-11T13:28:34.152Z,50.68
2022-10-11T13:31:03.946Z,52.57
2022-10-11T13:33:34.451Z,53.75
2022-10-11T13:36:03.407Z,53.91
2022-10-11T13:38:33.326Z,54.15
2022-10-11T13:41:04.392Z,52.33
2022-10-11T13:43:32.370Z,52.16
2022-10-11T13:46:01.176Z,53.94
2022-10-11T13:48:31.669Z,53.92
2022-10-11T13:51:33.401Z,54.09
2022-10-11T13:54:05.930Z,54.46
2022-10-11T13:56:52.520Z,54.72
2022-10-11T13:59:22.675Z,53.37
2022-10-11T14:01:52.970Z,53.99
2022-10-11T14:04:19.511Z,52.83
2022-10-11T14:06:53.706Z,54.75
2022-10-11T14:09:28.862Z,54.86
2022-10-11T14:11:55.676Z,54.80
2022-10-11T14:14:27.781Z,55.52
2022-10-11T14:17:10.411Z,54.42
2022-10-11T14:19:37.898Z,54.48
2022-10-11T14:22:07.429Z,55.25
2022-10-11T14:24:34.001Z,54.31
2022-10-11T14:27:05.348Z,53.55
2022-10-11T14:29:35.191Z,55.63
2022-10-11T14:32:06.618Z,54.91
2022-10-11T14:34:34.366Z,54.80
2022-10-11T14:37:01.113Z,54.93
2022-10-11T14:39:30.702Z,54.85
2022-10-11T14:41:57.389Z,54.96
2022-10-11T14:44:23.885Z,55.12
2022-10-11T14:46:54.310Z,54.63
2022-10-11T14:49:30.314Z,54.30
2022-10-11T14:51:58.516Z,54.08
2022-10-11T14:54:28.182Z,54.05
2022-10-11T14:56:58.073Z,54.48
2022-10-11T14:59:27.165Z,53.69
2022-10-11T15:01:54.218Z,54.49
2022-10-11T15:04:21.817Z,53.69
2022-10-11T15:06:48.576Z,53.50
2022-10-11T15:09:16.922Z,53.95
2022-10-11T15:11:43.522Z,53.56
2022-10-11T15:14:09.947Z,52.98
2022-10-11T15:16:36.479Z,53.34
2022-10-11T15:19:03.067Z,54.09
2022-10-11T15:21:29.606Z,52.46
2022-10-11T15:23:56.625Z,52.75
2022-10-11T15:26:28.202Z,52.35
2022-10-11T15:28:56.691Z,53.11
2022-10-11T15:31:23.406Z,53.19
2022-10-11T15:33:50.009Z,52.25
2022-10-11T15:36:19.685Z,52.65
2022-10-11T15:38:46.996Z,52.56
2022-10-11T15:41:15.730Z,53.22
2022-10-11T15:43:44.280Z,53.57
2022-10-11T15:46:17.308Z,52.79
2022-10-11T15:48:44.680Z,53.10
2022-10-11T15:51:11.144Z,52.75
2022-10-11T15:53:37.612Z,52.80
2022-10-11T15:56:07.268Z,53.73
2022-10-11T15:58:37.240Z,53.74
2022-10-11T16:01:07.119Z,53.39
2022-10-11T16:03:35.578Z,53.02
2022-10-11T16:06:05.519Z,52.66
2022-10-11T16:08:33.270Z,52.80
2022-10-11T16:11:00.039Z,52.24
2022-10-11T16:13:26.471Z,53.65
2022-10-11T16:15:53.069Z,53.01
2022-10-11T16:18:20.965Z,52.98
2022-10-11T16:20:49.395Z,52.69
2022-10-11T16:23:15.847Z,52.47
2022-10-11T16:25:42.714Z,52.84
2022-10-11T16:28:10.381Z,52.34
2022-10-11T16:30:43.085Z,52.22
2022-10-11T16:33:09.905Z,51.93
2022-10-11T16:35:40.368Z,52.17
2022-10-11T16:38:06.930Z,52.85
2022-10-11T16:40:35.755Z,52.49
2022-10-11T16:43:07.430Z,52.39
2022-10-11T16:45:36.708Z,52.53
2022-10-11T16:48:03.399Z,52.98
2022-10-11T16:50:29.902Z,53.93
2022-10-11T16:52:57.123Z,55.29
2022-10-11T16:55:23.624Z,55.40
2022-10-11T16:57:50.191Z,55.70
2022-10-11T17:00:16.971Z,57.17
2022-10-11T17:02:43.822Z,56.50
2022-10-11T17:05:10.375Z,55.71
2022-10-11T17:07:36.831Z,53.08
2022-10-11T17:10:04.007Z,53.89
2022-10-11T17:12:32.406Z,55.21
2022-10-11T17:14:58.841Z,55.08
2022-10-11T17:17:25.357Z,55.59
2022-10-11T17:19:51.760Z,55.42
2022-10-11T17:22:19.656Z,55.46
2022-10-11T17:24:47.368Z,54.86
2022-10-11T17:27:14.070Z,57.47
2022-10-11T17:29:40.736Z,59.18
2022-10-11T17:32:07.645Z,59.72
2022-10-11T17:34:34.384Z,60.04
2022-10-11T17:37:01.051Z,61.85
2022-10-11T17:39:27.638Z,71.21
2022-10-11T17:41:54.112Z,66.79
2022-10-11T17:44:21.588Z,62.65
2022-10-11T17:46:48.304Z,63.51
2022-10-11T17:49:15.150Z,63.31
2022-10-11T17:51:41.701Z,63.37
2022-10-11T17:54:12.529Z,63.65
2022-10-11T17:56:40.947Z,64.15
2022-10-11T17:59:08.860Z,64.63
2022-10-11T18:01:35.747Z,65.74
2022-10-11T18:04:04.789Z,66.45
2022-10-11T18:06:33.482Z,66.13
2022-10-11T18:09:01.930Z,66.77
2022-10-11T18:11:28.956Z,66.30
2022-10-11T18:13:55.629Z,66.73
2022-10-11T18:16:26.935Z,67.38
2022-10-11T18:18:54.672Z,67.19
2022-10-11T18:21:21.104Z,67.18
2022-10-11T18:23:47.662Z,67.52
2022-10-11T18:26:16.981Z,68.04
2022-10-11T18:28:44.240Z,67.20
2022-10-11T18:31:14.622Z,68.34
2022-10-11T18:34:31.218Z,67.73
2022-10-11T18:36:57.937Z,67.36
2022-10-11T18:39:24.556Z,66.67
2022-10-11T18:41:51.057Z,67.44
2022-10-11T18:44:17.600Z,67.65
2022-10-11T18:46:45.132Z,67.60
2022-10-11T18:49:12.000Z,68.86
2022-10-11T18:51:40.914Z,69.25
2022-10-11T18:54:10.305Z,69.19
2022-10-11T18:56:38.001Z,69.22
2022-10-11T18:59:05.434Z,68.83
2022-10-11T19:01:35.435Z,68.66
2022-10-11T19:04:04.320Z,69.69
2022-10-11T19:06:34.311Z,71.17
2022-10-11T19:09:04.374Z,70.93
2022-10-11T19:11:31.148Z,70.48
2022-10-11T19:14:07.139Z,70.68
2022-10-11T19:16:37.658Z,70.63
2022-10-11T19:19:04.924Z,70.14
2022-10-11T19:21:31.460Z,71.21
2022-10-11T19:23:58.174Z,70.02
2022-10-11T19:26:29.955Z,70.15
2022-10-11T19:28:59.409Z,70.84
2022-10-11T19:31:26.376Z,70.41
2022-10-11T19:33:53.336Z,70.76
2022-10-11T19:36:19.941Z,72.02
2022-10-11T19:38:48.425Z,71.77
2022-10-11T19:41:17.501Z,71.28
2022-10-11T19:43:44.553Z,71.20
2022-10-11T19:46:20.176Z,71.48
2022-10-11T19:48:51.244Z,70.09
2022-10-11T19:51:23.084Z,70.77
2022-10-11T19:53:59.939Z,71.07
2022-10-11T19:56:28.967Z,70.27
2022-10-11T19:58:55.384Z,71.94
2022-10-11T20:01:24.402Z,71.84
2022-10-11T20:04:27.427Z,71.02
2022-10-11T20:06:57.878Z,70.02
2022-10-11T20:09:29.474Z,71.01
2022-10-11T20:11:57.008Z,70.58
2022-10-11T20:14:23.519Z,70.42
2022-10-11T20:16:50.911Z,70.92
2022-10-11T20:19:17.489Z,71.42
2022-10-11T20:21:44.868Z,70.37
2022-10-11T20:24:11.320Z,70.09
2022-10-11T20:26:38.902Z,71.02
2022-10-11T20:29:05.369Z,70.51
2022-10-11T20:31:33.727Z,70.27
2022-10-11T20:34:03.935Z,70.98
2022-10-11T20:36:31.581Z,71.81
2022-10-11T20:39:01.271Z,72.47
2022-10-11T20:41:33.197Z,71.70
2022-10-11T20:44:01.055Z,71.29
2022-10-11T20:46:29.926Z,71.44
2022-10-11T20:49:02.565Z,73.08
2022-10-11T20:51:34.566Z,73.63
2022-10-11T20:54:02.010Z,73.72
2022-10-11T20:56:29.614Z,74.17
2022-10-11T20:58:57.973Z,73.38
2022-10-11T21:01:27.782Z,72.99
2022-10-11T21:03:56.917Z,73.39
2022-10-11T21:06:23.361Z,72.57
2022-10-11T21:08:49.791Z,72.36
2022-10-11T21:11:17.250Z,71.98
2022-10-11T21:13:43.750Z,73.71
2022-10-11T21:16:15.846Z,73.29
2022-10-11T21:18:42.527Z,72.94
2022-10-11T21:21:14.341Z,73.42
2022-10-11T21:23:41.379Z,73.22
2022-10-11T21:26:10.331Z,73.30
2022-10-11T21:28:37.894Z,73.72
2022-10-11T21:31:09.481Z,74.64
2022-10-11T21:33:36.838Z,73.91
2022-10-11T21:36:19.788Z,74.78
2022-10-11T21:38:46.606Z,74.82
2022-10-11T21:41:18.235Z,76.08
2022-10-11T21:43:45.253Z,76.28
2022-10-11T21:46:16.645Z,77.45
2022-10-11T21:48:43.764Z,76.47
2022-10-11T21:51:15.639Z,75.59
2022-10-11T21:53:42.196Z,75.73
2022-10-11T21:56:08.705Z,75.84
2022-10-11T21:58:35.336Z,75.78
2022-10-11T22:01:01.878Z,75.20
2022-10-11T22:03:28.300Z,74.48
2022-10-11T22:05:54.818Z,74.31
2022-10-11T22:08:21.478Z,74.74
2022-10-11T22:10:57.617Z,75.23
2022-10-11T22:13:25.509Z,73.58
2022-10-11T22:15:51.909Z,74.31
2022-10-11T22:18:18.851Z,74.45
2022-10-11T22:20:45.445Z,74.60
2022-10-11T22:23:11.938Z,74.65
2022-10-11T22:25:39.356Z,73.66
2022-10-11T22:28:06.240Z,74.28
2022-10-11T22:30:33.057Z,75.52
2022-10-11T22:32:59.543Z,75.90
2022-10-11T22:35:26.007Z,77.14
2022-10-11T22:37:52.483Z,75.79
2022-10-11T22:40:19.798Z,74.92
2022-10-11T22:42:47.032Z,73.55
2022-10-11T22:45:13.486Z,74.72
2022-10-11T22:47:39.841Z,75.72
2022-10-11T22:50:06.454Z,75.29
2022-10-11T22:52:32.987Z,75.75
2022-10-11T22:54:59.433Z,76.25
2022-10-11T22:57:25.790Z,75.35
2022-10-11T22:59:52.289Z,76.30
2022-10-11T23:02:18.691Z,76.62
2022-10-11T23:04:45.095Z,76.72
2022-10-11T23:07:11.633Z,77.34
2022-10-11T23:09:38.015Z,76.65
2022-10-11T23:12:04.692Z,74.50
2022-10-11T23:14:31.113Z,74.68
2022-10-11T23:16:57.506Z,75.61
2022-10-11T23:19:23.909Z,74.60
2022-10-11T23:21:50.493Z,75.01
2022-10-11T23:24:16.921Z,74.15
2022-10-11T23:26:43.439Z,73.71
2022-10-11T23:29:09.890Z,74.34
2022-10-11T23:31:36.337Z,74.04
2022-10-11T23:34:02.767Z,74.13
2022-10-11T23:36:30.328Z,75.41
2022-10-11T23:38:58.411Z,75.93
2022-10-11T23:41:27.224Z,74.82
2022-10-11T23:43:53.809Z,74.95
2022-10-11T23:46:20.481Z,73.80
2022-10-11T23:48:47.097Z,73.17
2022-10-11T23:51:14.105Z,72.91
2022-10-11T23:53:40.544Z,73.30
2022-10-11T23:56:07.777Z,72.39
2022-10-11T23:58:34.277Z,74.14
